Time;durP1;ratioP1;P1;durP2;ratioP2;P2;SDS_P1;SDS_P2;PMS_P1;PMS_P2;Temp;Humidity;BMP_temperature;BMP_pressure;BME280_temperature;BME280_humidity;BME280_pressure;Samples;Min_cycle;Max_cycle;Signal;HPM_P1;HPM_P2
2022/05/22 00:02:37;;;;;;;15.60;4.22;;;;;;;;;;10427828;28;20053;-76
2022/05/22 00:07:39;;;;;;;12.68;3.78;;;;;;;;;;10437716;28;20049;-76
2022/05/22 00:12:41;;;;;;;10.93;3.65;;;;;;;;;;10425703;28;20128;-75
2022/05/22 00:17:43;;;;;;;12.88;3.50;;;;;;;;;;10430139;28;20053;-76
2022/05/22 00:22:44;;;;;;;15.38;3.45;;;;;;;;;;10416481;28;20040;-75
2022/05/22 00:27:45;;;;;;;14.02;3.40;;;;;;;;;;10438066;28;20412;-75
2022/05/22 00:32:47;;;;;;;12.88;3.80;;;;;;;;;;10428865;28;20068;-76
2022/05/22 00:37:50;;;;;;;11.63;3.22;;;;;;;;;;10396880;28;20459;-76
2022/05/22 00:42:52;;;;;;;9.88;3.60;;;;;;;;;;10425584;28;20146;-76
2022/05/22 00:47:54;;;;;;;10.63;3.63;;;;;;;;;;10409699;28;20580;-75
2022/05/22 00:52:57;;;;;;;12.10;3.75;;;;;;;;;;10431947;28;20212;-75
2022/05/22 00:58:01;;;;;;;16.80;4.60;;;;;;;;;;10418818;28;20114;-76
2022/05/22 01:03:41;;;;;;;7.82;3.22;;;;;;;;;;10439182;28;20048;-75
2022/05/22 01:08:35;;;;;;;9.38;4.20;;;;;;;;;;10404887;28;20464;-75
2022/05/22 01:13:39;;;;;;;12.88;4.45;;;;;;;;;;10415609;28;20037;-75
2022/05/22 01:18:48;;;;;;;12.18;4.68;;;;;;;;;;10416302;28;20505;-76
2022/05/22 01:23:50;;;;;;;13.40;4.90;;;;;;;;;;10403351;28;20045;-76
2022/05/22 01:28:57;;;;;;;12.57;5.05;;;;;;;;;;10399819;28;20059;-76
2022/05/22 01:33:58;;;;;;;11.98;5.03;;;;;;;;;;10423486;28;20036;-75
2022/05/22 01:39:00;;;;;;;16.50;5.20;;;;;;;;;;10418822;28;20052;-75
2022/05/22 01:44:14;;;;;;;12.38;4.32;;;;;;;;;;10402999;28;20048;-75
2022/05/22 01:49:15;;;;;;;11.70;4.47;;;;;;;;;;10439530;28;20045;-75
2022/05/22 01:54:18;;;;;;;10.27;4.65;;;;;;;;;;10410304;28;20048;-76
2022/05/22 01:59:20;;;;;;;;;;;;;;;;;;10416998;28;20171;-76
2022/05/22 02:04:26;;;;;;;11.73;4.68;;;;;;;;;;10417156;28;19927;-75
2022/05/22 02:09:29;;;;;;;13.75;4.88;;;;;;;;;;10414897;28;20045;-76
2022/05/22 02:14:30;;;;;;;11.38;4.60;;;;;;;;;;10387985;28;20041;-75
2022/05/22 02:19:37;;;;;;;11.52;5.00;;;;;;;;;;10402820;28;20049;-75
2022/05/22 02:24:39;;;;;;;12.13;5.43;;;;;;;;;;10431161;28;20420;-75
2022/05/22 02:29:47;;;;;;;16.88;5.97;;;;;;;;;;10407858;28;20084;-75
2022/05/22 02:34:48;;;;;;;16.30;5.10;;;;;;;;;;10421171;28;20069;-75
2022/05/22 02:39:50;;;;;;;10.57;4.90;;;;;;;;;;10407586;28;20665;-75
2022/05/22 02:45:21;;;;;;;13.23;5.32;;;;;;;;;;10404527;28;20045;-75
2022/05/22 02:50:24;;;;;;;13.05;4.80;;;;;;;;;;10410962;28;20428;-76
2022/05/22 02:55:28;;;;;;;17.15;5.68;;;;;;;;;;10414503;28;20575;-75
2022/05/22 03:00:30;;;;;;;14.07;5.53;;;;;;;;;;10427293;28;20056;-75
2022/05/22 03:10:53;;;;;;;;;;;;;;;;;;10414143;28;20555;-75
2022/05/22 03:15:55;;;;;;;11.40;4.60;;;;;;;;;;10401390;28;19925;-75
2022/05/22 03:21:13;;;;;;;16.10;6.40;;;;;;;;;;10400678;28;20052;-75
2022/05/22 03:26:14;;;;;;;11.68;4.95;;;;;;;;;;10424833;28;20829;-75
2022/05/22 03:31:16;;;;;;;14.05;5.63;;;;;;;;;;10427995;28;20497;-74
2022/05/22 03:36:18;;;;;;;12.63;5.28;;;;;;;;;;10427059;28;20041;-75
2022/05/22 03:41:19;;;;;;;20.27;5.75;;;;;;;;;;10409603;28;20056;-74
2022/05/22 03:46:21;;;;;;;19.52;5.25;;;;;;;;;;10409257;28;20072;-75
2022/05/22 03:51:24;;;;;;;13.80;5.07;;;;;;;;;;10420871;28;20441;-75
2022/05/22 03:56:27;;;;;;;11.73;5.28;;;;;;;;;;10408316;28;20076;-75
2022/05/22 04:01:29;;;;;;;15.43;5.60;;;;;;;;;;10430691;28;20052;-75
2022/05/22 04:06:34;;;;;;;16.15;6.15;;;;;;;;;;10428945;28;20540;-75
2022/05/22 04:11:38;;;;;;;12.23;5.30;;;;;;;;;;10432943;28;20049;-74
2022/05/22 04:16:40;;;;;;;14.20;6.25;;;;;;;;;;10412995;28;20060;-75
2022/05/22 04:21:43;;;;;;;14.85;5.97;;;;;;;;;;10390018;28;20558;-75
2022/05/22 04:27:01;;;;;;;12.63;5.72;;;;;;;;;;10420546;28;20716;-75
2022/05/22 04:32:05;;;;;;;24.38;6.55;;;;;;;;;;10423571;28;20056;-76
2022/05/22 04:37:14;;;;;;;14.60;6.37;;;;;;;;;;10437784;28;20049;-75
2022/05/22 04:42:21;;;;;;;13.30;6.07;;;;;;;;;;10412214;28;20049;-75
2022/05/22 04:47:22;;;;;;;15.00;6.65;;;;;;;;;;10417039;28;20554;-75
2022/05/22 04:52:52;;;;;;;15.50;6.60;;;;;;;;;;10417765;28;20114;-75
2022/05/22 04:57:53;;;;;;;14.77;6.88;;;;;;;;;;10412206;28;20060;-76
2022/05/22 05:02:55;;;;;;;14.68;6.65;;;;;;;;;;10416908;28;20476;-75
2022/05/22 05:07:57;;;;;;;17.10;6.85;;;;;;;;;;10406035;28;20052;-76
2022/05/22 05:13:37;;;;;;;16.20;8.67;;;;;;;;;;10405745;28;20050;-75
2022/05/22 05:18:39;;;;;;;23.35;8.68;;;;;;;;;;10405594;28;20068;-75
2022/05/22 05:23:41;;;;;;;23.55;8.35;;;;;;;;;;10411324;28;20493;-76
2022/05/22 05:28:54;;;;;;;21.23;8.00;;;;;;;;;;10384201;28;20046;-76
2022/05/22 05:34:05;;;;;;;26.48;8.10;;;;;;;;;;10402478;28;20044;-75
2022/05/22 05:39:18;;;;;;;17.33;7.35;;;;;;;;;;10410489;28;20045;-76
2022/05/22 05:44:32;;;;;;;18.63;7.80;;;;;;;;;;10415162;28;20045;-75
2022/05/22 05:49:49;;;;;;;14.90;6.63;;;;;;;;;;10405904;28;20048;-75
2022/05/22 05:55:14;;;;;;;16.75;6.93;;;;;;;;;;10421524;28;20125;-76
2022/05/22 06:00:44;;;;;;;17.17;6.18;;;;;;;;;;10422777;28;20460;-78
2022/05/22 06:05:47;;;;;;;17.30;6.93;;;;;;;;;;10412384;28;20641;-74
2022/05/22 06:10:59;;;;;;;16.70;6.45;;;;;;;;;;10397486;28;20041;-77
2022/05/22 06:16:09;;;;;;;23.17;6.10;;;;;;;;;;10410017;28;20053;-76
2022/05/22 06:21:33;;;;;;;16.13;6.00;;;;;;;;;;10425041;28;20044;-76
2022/05/22 06:26:36;;;;;;;15.65;5.80;;;;;;;;;;10420561;28;20103;-78
2022/05/22 06:32:10;;;;;;;16.73;5.18;;;;;;;;;;10427462;28;20045;-77
2022/05/22 06:37:48;;;;;;;13.88;5.07;;;;;;;;;;10380158;28;20751;-77
2022/05/22 06:43:10;;;;;;;15.50;4.22;;;;;;;;;;10404121;28;20516;-77
2022/05/22 06:48:47;;;;;;;11.55;3.50;;;;;;;;;;10399120;28;20041;-78
2022/05/22 06:54:18;;;;;;;14.90;3.60;;;;;;;14.93;nan;100705.84;10394666;28;20045;-79
2022/05/22 06:59:47;;;;;;;13.45;3.45;;;;;;;15.68;nan;101037.28;10384619;28;20056;-79
2022/05/22 07:05:10;;;;;;;16.98;3.38;;;;;;;-147.53;nan;75712.84;10439988;28;20041;-78
2022/05/22 07:16:13;;;;;;;13.23;3.50;;;;;;;16.61;nan;101437.22;10409022;28;20375;-78
2022/05/22 07:21:38;;;;;;;12.50;2.63;;;;;;;16.06;nan;101196.66;10387906;28;20111;-77
2022/05/22 07:27:03;;;;;;;7.18;2.05;;;;;;;15.67;nan;101024.09;10426368;28;20056;-76
2022/05/22 07:32:17;;;;;;;7.90;1.80;;;;;;;16.87;nan;101546.63;10402337;28;20052;-76
2022/05/22 07:37:49;;;;;;;9.48;2.35;;;;;;;17.36;nan;101755.88;10398026;28;20483;-79
2022/05/22 07:43:27;;;;;;;7.55;1.42;;;;;;;17.47;nan;101801.81;10402154;28;20053;-79
2022/05/22 07:48:54;;;;;;;6.18;1.02;;;;;;;18.85;nan;102415.06;10379648;28;20057;-78
2022/05/22 07:54:12;;;;;;;7.47;1.23;;;;;;;18.18;nan;102109.56;10425424;28;20416;-77
2022/05/22 07:59:16;;;;;;;8.68;1.92;;;;;;;18.74;nan;102346.00;10435644;28;20044;-77
2022/05/22 08:04:36;;;;;;;7.05;1.50;;;;;;;18.55;nan;102253.00;10428981;28;20045;-77
2022/05/22 08:09:58;;;;;;;8.82;1.95;;;;;;;17.53;nan;101805.34;10430354;28;20040;-77
2022/05/22 08:14:59;;;;;;;12.95;1.90;;;;;;;18.09;nan;102039.69;10404283;28;20037;-78
2022/05/22 08:20:14;;;;;;;8.95;1.83;;;;;;;17.98;nan;101989.28;10427752;28;20052;-78
2022/05/22 08:25:28;;;;;;;5.53;1.27;;;;;;;17.34;nan;101696.75;10448720;28;20105;-81
2022/05/22 08:30:32;;;;;;;4.50;1.25;;;;;;;16.98;nan;101534.34;10457166;28;20036;-82
2022/05/22 08:35:38;;;;;;;5.60;1.45;;;;;;;17.91;nan;101934.47;10445705;28;20050;-79
2022/05/22 08:40:54;;;;;;;6.70;1.55;;;;;;;18.69;nan;102270.75;10461342;28;20697;-81
2022/05/22 08:46:11;;;;;;;8.98;1.40;;;;;;;18.62;nan;102231.81;10464638;28;20041;-77
2022/05/22 08:51:20;;;;;;;7.90;1.35;;;;;;;18.10;nan;102002.59;10461514;28;20052;-80
2022/05/22 09:02:02;;;;;;;4.30;1.10;;;;;;;18.61;nan;102199.09;10444819;28;20048;-80
2022/05/22 09:07:24;;;;;;;4.82;1.20;;;;;;;20.03;nan;102812.91;10432697;28;20056;-79
2022/05/22 09:12:56;;;;;;;8.13;1.33;;;;;;;18.93;nan;102316.97;10427508;28;20037;-78
2022/05/22 09:18:21;;;;;;;4.13;1.10;;;;;;;17.69;nan;101774.53;10429984;28;20033;-81
2022/05/22 09:23:54;;;;;;;5.75;1.73;;;;;;;17.19;nan;101551.13;10409526;28;20147;-82
2022/05/22 09:29:24;;;;;;;4.85;1.20;;;;;;;17.16;nan;101522.91;10390262;28;20064;-81
2022/05/22 09:34:49;;;;;;;5.22;1.00;;;;;;;18.47;nan;102081.44;10394974;28;20057;-80
2022/05/22 09:40:19;;;;;;;4.47;1.10;;;;;;;19.66;nan;102597.25;10390664;28;20583;-77
2022/05/22 09:45:47;;;;;;;7.47;1.20;;;;;;;19.64;nan;102578.63;10437339;28;20565;-81
2022/05/22 09:51:11;;;;;;;9.50;1.38;;;;;;;18.76;nan;102185.03;10430035;28;20459;-77
2022/05/22 09:56:43;;;;;;;6.03;1.98;;;;;;;18.22;nan;101939.91;10430700;28;20507;-75
2022/05/22 10:01:53;;;;;;;12.55;2.58;;;;;;;18.33;nan;101976.19;10423327;28;20049;-74
2022/05/22 10:07:11;;;;;;;5.05;1.30;;;;;;;18.99;nan;102255.94;10437280;28;20061;-77
2022/05/22 10:12:29;;;;;;;3.90;1.20;;;;;;;18.85;nan;102194.81;10417691;28;20523;-73
2022/05/22 10:17:39;;;;;;;5.78;0.85;;;;;;;17.96;nan;101795.81;10428911;28;20041;-74
2022/05/22 10:23:01;;;;;;;5.95;1.27;;;;;;;17.72;nan;101685.38;10428987;28;20047;-74
2022/05/22 10:28:06;;;;;;;5.05;1.20;;;;;;;18.37;nan;101950.56;10427545;28;20041;-73
2022/05/22 10:33:18;;;;;;;4.53;0.88;;;;;;;19.41;nan;102395.13;10408061;28;20040;-74
2022/05/22 10:38:25;;;;;;;4.72;1.27;;;;;;;20.42;nan;102830.13;10431262;28;20087;-74
2022/05/22 10:43:27;;;;;;;5.57;1.15;;;;;;;20.86;nan;103015.97;10431701;28;20402;-74
2022/05/22 10:48:31;;;;;;;5.05;1.10;;;;;;;20.28;nan;102750.19;10433331;28;20504;-75
2022/05/22 10:53:34;;;;;;;6.97;1.30;;;;;;;19.68;nan;102470.56;10435197;28;20077;-74
2022/05/22 10:58:48;;;;;;;7.18;1.55;;;;;;;19.39;nan;102338.47;10418388;28;20409;-74
2022/05/22 11:04:11;;;;;;;6.43;1.35;;;;;;;19.91;nan;102550.50;10419964;28;20405;-78
2022/05/22 11:09:13;;;;;;;5.00;1.33;;;;;;;20.00;nan;102586.91;10420159;28;20041;-79
2022/05/22 11:14:19;;;;;;;4.80;1.10;;;;;;;19.56;nan;102384.63;10426777;28;20080;-77
2022/05/22 11:19:24;;;;;;;6.45;1.67;;;;;;;19.38;nan;102294.19;10416039;28;20034;-78
2022/05/22 11:24:54;;;;;;;4.43;1.10;;;;;;;19.05;nan;102141.81;10420307;28;20049;-73
2022/05/22 11:30:05;;;;;;;6.72;1.35;;;;;;;18.85;nan;102057.72;10403438;28;20040;-76
2022/05/22 11:35:17;;;;;;;5.05;1.35;;;;;;;19.36;nan;102264.09;10420200;28;20041;-74
2022/05/22 11:40:51;;;;;;;5.35;1.40;;;;;;;20.02;nan;102538.16;10418393;28;20056;-73
2022/05/22 11:46:09;;;;;;;5.43;1.00;;;;;;;20.61;nan;102781.50;10416698;28;20049;-74
2022/05/22 11:52:02;;;;;;;5.88;1.40;;;;;;;20.24;nan;102624.25;10434753;28;20084;-73
2022/05/22 11:57:34;;;;;;;6.97;2.55;;;;;;;19.90;nan;102461.88;10393619;28;20044;-74
2022/05/22 12:03:00;;;;;;;5.38;1.10;;;;;;;19.75;nan;102379.38;10410876;28;20110;-74
2022/05/22 12:08:26;;;;;;;7.07;1.40;;;;;;;19.81;nan;102395.38;10430530;28;20033;-74
2022/05/22 12:13:55;;;;;;;4.30;1.00;;;;;;;19.94;nan;102449.50;10426270;28;20041;-74
2022/05/22 12:19:01;;;;;;;5.18;1.10;;;;;;;19.92;nan;102425.56;10415459;28;20045;-74
2022/05/22 12:24:05;;;;;;;6.20;1.20;;;;;;;19.91;nan;102421.13;10434192;28;20553;-75
2022/05/22 12:29:13;;;;;;;5.53;1.33;;;;;;;19.55;nan;102252.66;10443019;28;20119;-74
2022/05/22 12:34:43;;;;;;;22.08;11.40;;;;;;;19.80;nan;102356.38;10456320;28;20041;-76
2022/05/22 12:39:50;;;;;;;;;;;;;;;20.28;nan;102548.94;10433980;28;20089;-77
2022/05/22 12:44:52;;;;;;;3.75;0.93;;;;;;;20.09;nan;102454.00;10422178;28;19924;-75
2022/05/22 12:49:58;;;;;;;8.23;1.35;;;;;;;20.38;nan;102575.56;10439508;28;20044;-76
2022/05/22 12:55:21;;;;;;;5.60;1.17;;;;;;;20.27;nan;102528.53;10420548;28;20048;-76
2022/05/22 13:00:41;;;;;;;9.82;4.38;;;;;;;19.82;nan;102322.75;10406823;28;21600;-76
2022/05/22 13:06:05;;;;;;;4.57;1.10;;;;;;;20.44;nan;102573.81;10435318;28;20049;-76
2022/05/22 13:11:17;;;;;;;4.25;1.05;;;;;;;21.10;nan;102846.59;10413894;28;20061;-76
2022/05/22 13:16:47;;;;;;;2.47;0.88;;;;;;;20.79;nan;102711.53;10409206;28;20044;-76
2022/05/22 13:21:52;;;;;;;5.78;1.20;;;;;;;20.31;nan;102493.09;10425500;28;20408;-76
2022/05/22 13:26:58;;;;;;;3.15;0.90;;;;;;;20.22;nan;102447.84;10422509;28;20094;-75
2022/05/22 13:32:02;;;;;;;5.75;1.10;;;;;;;20.23;nan;102446.94;10419282;28;20056;-76
2022/05/22 13:37:08;;;;;;;5.40;1.20;;;;;;;20.87;nan;102702.66;10446939;28;20033;-75
2022/05/22 13:42:38;;;;;;;6.55;1.52;;;;;;;21.05;nan;102765.78;10408490;28;20052;-75
2022/05/22 13:48:08;;;;;;;6.03;0.93;;;;;;;21.86;nan;103106.53;10422695;28;20454;-76
2022/05/22 13:53:39;;;;;;;5.43;1.10;;;;;;;22.47;nan;103369.38;10432150;28;20516;-76
2022/05/22 13:58:42;;;;;;;6.45;1.25;;;;;;;22.58;nan;103413.09;10428754;28;20059;-76
2022/05/22 14:03:53;;;;;;;5.15;1.08;;;;;;;22.46;nan;103338.22;10448140;28;20044;-76
2022/05/22 14:08:57;;;;;;;7.68;1.20;;;;;;;23.00;nan;103565.66;10415508;28;20044;-77
2022/05/22 14:14:00;;;;;;;3.55;0.95;;;;;;;23.10;nan;103603.25;10420212;28;20033;-76
2022/05/22 14:19:08;;;;;;;5.00;1.20;;;;;;;23.01;nan;103546.97;10419025;28;20516;-75
2022/05/22 14:29:43;;;;;;;4.15;0.90;;;;;;;22.58;nan;103338.34;10425144;28;20072;-76
2022/05/22 14:34:45;;;;;;;5.45;1.10;;;;;;;22.21;nan;103156.53;10427575;28;20052;-75
2022/05/22 14:39:56;;;;;;;3.92;1.00;;;;;;;21.81;nan;102982.94;10421668;28;20080;-76
2022/05/22 14:45:12;;;;;;;3.90;0.75;;;;;;;21.09;nan;102672.59;10439816;28;20059;-76
2022/05/22 14:50:34;;;;;;;4.53;0.88;;;;;;;21.07;nan;102644.19;10416004;28;20041;-76
2022/05/22 14:55:44;;;;;;;4.35;1.08;;;;;;;21.85;nan;102969.59;10438573;28;20057;-75
2022/05/22 15:01:07;;;;;;;5.60;1.42;;;;;;;21.65;nan;102872.69;10440312;28;20133;-75
2022/05/22 15:06:09;;;;;;;5.60;1.25;;;;;;;21.42;nan;102771.25;10406435;28;20057;-75
2022/05/22 15:11:23;;;;;;;5.55;1.17;;;;;;;21.03;nan;102595.31;10399390;28;20048;-75
2022/05/22 15:16:31;;;;;;;4.95;0.93;;;;;;;21.11;nan;102619.34;10412887;28;20040;-75
2022/05/22 15:21:33;;;;;;;3.35;0.80;;;;;;;20.93;nan;102540.31;10408948;28;20064;-73
2022/05/22 15:26:46;;;;;;;4.20;1.00;;;;;;;20.81;nan;102479.94;10444329;28;20063;-71
2022/05/22 15:31:48;;;;;;;4.43;1.05;;;;;;;21.39;nan;102715.28;10442350;28;20056;-73
2022/05/22 15:36:49;;;;;;;5.45;1.45;;;;;;;22.06;nan;102992.81;10439144;28;20041;-73
2022/05/22 15:42:02;;;;;;;6.78;1.10;;;;;;;21.71;nan;102838.03;10443935;28;20060;-73
2022/05/22 15:47:28;;;;;;;6.30;1.23;;;;;;;21.35;nan;102674.44;10441904;28;20064;-71
2022/05/22 15:52:30;;;;;;;6.65;1.50;;;;;;;21.46;nan;102712.63;10444566;28;20041;-74
2022/05/22 15:57:32;;;;;;;5.30;0.82;;;;;;;20.91;nan;102471.06;10429720;28;20060;-75
2022/05/22 16:02:37;;;;;;;6.03;1.20;;;;;;;20.80;nan;102428.44;10434284;28;20048;-73
2022/05/22 16:07:39;;;;;;;6.55;1.45;;;;;;;21.09;nan;102546.50;10454325;28;20118;-73
2022/05/22 16:12:42;;;;;;;6.50;1.20;;;;;;;21.49;nan;102701.09;10436828;28;20049;-73
2022/05/22 16:17:57;;;;;;;4.45;1.08;;;;;;;21.29;nan;102618.47;10444297;28;20646;-74
2022/05/22 16:23:01;;;;;;;5.13;1.63;;;;;;;21.17;nan;102555.41;10439131;28;20052;-73
2022/05/22 16:28:03;;;;;;;2.75;0.80;;;;;;;20.64;nan;102337.06;10450637;28;20769;-71
2022/05/22 16:33:05;;;;;;;5.63;1.10;;;;;;;20.00;nan;102061.38;10451457;28;20053;-71
2022/05/22 16:38:08;;;;;;;6.75;1.48;;;;;;;19.60;nan;101892.22;10437325;28;20055;-73
2022/05/22 16:43:10;;;;;;;4.10;0.98;;;;;;;19.91;nan;102013.56;10443614;28;20552;-74
2022/05/22 16:53:32;;;;;;;3.10;1.13;;;;;;;20.73;nan;102340.59;10425827;28;20129;-75
2022/05/22 16:58:37;;;;;;;6.88;1.27;;;;;;;20.45;nan;102215.56;10427554;28;20821;-75
2022/05/22 17:03:41;;;;;;;5.00;1.10;;;;;;;20.23;nan;102122.47;10438306;28;20045;-75
2022/05/22 17:08:48;;;;;;;4.93;1.17;;;;;;;20.74;nan;102332.63;10416207;28;20044;-75
2022/05/22 17:13:59;;;;;;;3.67;1.00;;;;;;;21.07;nan;102469.28;10432685;28;20743;-74
2022/05/22 17:19:00;;;;;;;5.57;1.17;;;;;;;21.16;nan;102492.38;10425418;28;20110;-74
2022/05/22 17:24:03;;;;;;;5.70;1.35;;;;;;;21.13;nan;102473.72;10415910;28;20088;-74
2022/05/22 17:29:09;;;;;;;8.07;2.10;;;;;;;20.82;nan;102343.25;10430381;28;20442;-74
2022/05/22 17:34:11;;;;;;;4.75;1.30;;;;;;;20.35;nan;102141.97;10448232;28;20068;-74
2022/05/22 17:39:13;;;;;;;5.88;1.77;;;;;;;19.75;nan;101901.03;10433147;28;20055;-74
2022/05/22 17:44:15;;;;;;;5.45;1.40;;;;;;;19.45;nan;101772.75;10427984;28;20046;-74
2022/05/22 17:49:17;;;;;;;4.63;1.15;;;;;;;19.10;nan;101632.22;10379136;28;20055;-74
2022/05/22 17:54:19;;;;;;;4.10;1.30;;;;;;;18.95;nan;101564.16;10441130;28;20037;-74
2022/05/22 17:59:20;;;;;;;5.85;1.60;;;;;;;18.89;nan;101539.41;10383314;28;20128;-75
2022/05/22 18:04:22;;;;;;;5.50;1.48;;;;;;;18.82;nan;101512.88;10448672;28;20037;-74
2022/05/22 18:09:27;;;;;;;5.90;1.40;;;;;;;18.59;nan;101413.09;10426004;28;20044;-74
2022/05/22 18:19:51;;;;;;;6.80;1.25;;;;;;;18.26;nan;101273.69;10455344;28;20381;-77
2022/05/22 18:30:19;;;;;;;5.57;1.13;;;;;;;17.90;nan;101129.97;10434376;28;20725;-75
2022/05/22 18:35:24;;;;;;;6.03;1.40;;;;;;;17.80;nan;101084.09;10429815;28;20037;-77
2022/05/22 18:40:27;;;;;;;3.03;1.23;;;;;;;17.56;nan;100985.44;10459907;28;20052;-77
2022/05/22 18:45:44;;;;;;;5.22;0.90;;;;;;;17.38;nan;100915.00;10448202;28;20051;-77
2022/05/22 18:50:46;;;;;;;6.93;0.93;;;;;;;17.17;nan;100834.03;10428872;28;20051;-76
2022/05/22 18:55:49;;;;;;;2.72;0.90;;;;;;;16.95;nan;100743.44;10415375;28;20044;-77
2022/05/22 19:00:51;;;;;;;4.25;0.90;;;;;;;16.73;nan;100664.28;10440421;28;20687;-77
2022/05/22 19:05:54;;;;;;;3.92;1.08;;;;;;;16.61;nan;100608.91;10418153;28;20484;-76
2022/05/22 19:10:56;;;;;;;5.30;1.23;;;;;;;16.42;nan;100539.50;10446174;28;20110;-76
2022/05/22 19:16:00;;;;;;;4.20;1.33;;;;;;;16.27;nan;100474.50;10447114;28;20045;-77
2022/05/22 19:21:02;;;;;;;9.02;1.48;;;;;;;16.12;nan;100417.44;10419895;28;20037;-76
2022/05/22 19:26:04;;;;;;;5.63;1.30;;;;;;;15.98;nan;100361.28;10438107;28;20045;-76
2022/05/22 19:31:07;;;;;;;3.45;1.17;;;;;;;15.80;nan;100289.31;10416250;28;20049;-75
2022/05/22 19:36:10;;;;;;;6.95;1.40;;;;;;;15.64;nan;100238.47;10441514;28;20053;-77
2022/05/22 19:46:41;;;;;;;7.00;1.50;;;;;;;15.36;nan;100119.22;10433341;28;20051;-74
2022/05/22 19:51:44;;;;;;;6.07;1.45;;;;;;;15.17;nan;100055.28;10429859;28;20424;-76
2022/05/22 20:02:08;;;;;;;7.57;1.42;;;;;;;14.68;nan;99864.41;10422042;28;20045;-77
2022/05/22 20:07:10;;;;;;;3.55;1.15;;;;;;;14.54;nan;99804.00;10426015;28;20044;-76
2022/05/22 20:12:12;;;;;;;4.25;1.60;;;;;;;14.35;nan;99734.06;10445441;28;20049;-77
2022/05/22 20:17:14;;;;;;;7.05;1.77;;;;;;;14.21;nan;99687.72;10439879;28;20069;-76
2022/05/22 20:22:15;;;;;;;5.95;1.48;;;;;;;14.07;nan;99631.81;10432769;28;20041;-76
2022/05/22 20:27:17;;;;;;;4.32;1.40;;;;;;;14.00;nan;99606.47;10412284;28;20053;-75
2022/05/22 20:32:19;;;;;;;8.63;1.90;;;;;;;13.93;nan;99582.91;10434639;28;20041;-77
2022/05/22 20:37:21;;;;;;;5.22;1.40;;;;;;;13.87;nan;99561.94;10447048;28;20538;-76
2022/05/22 20:42:24;;;;;;;5.82;1.65;;;;;;;13.80;nan;99536.63;10435918;28;20069;-77
2022/05/22 20:47:26;;;;;;;6.63;1.50;;;;;;;13.71;nan;99508.69;10407143;28;20429;-76
2022/05/22 20:52:28;;;;;;;4.97;1.38;;;;;;;13.68;nan;99500.00;10406093;28;20044;-75
2022/05/22 20:57:34;;;;;;;6.93;1.98;;;;;;;13.63;nan;99483.41;10445634;28;20044;-76
2022/05/22 21:02:36;;;;;;;8.88;3.20;;;;;;;13.61;nan;99471.13;10457124;28;20044;-76
2022/05/22 21:07:40;;;;;;;5.57;1.80;;;;;;;13.67;nan;99500.88;10437654;28;20084;-77
2022/05/22 21:12:43;;;;;;;7.07;2.00;;;;;;;13.67;nan;99500.88;10419726;28;20521;-76
2022/05/22 21:17:45;;;;;;;5.57;1.60;;;;;;;13.67;nan;99504.38;10407046;28;20048;-77
2022/05/22 21:22:47;;;;;;;6.72;1.55;;;;;;;13.61;nan;99492.19;10424459;28;20421;-75
2022/05/22 21:33:10;;;;;;;4.40;1.45;;;;;;;13.42;nan;99417.09;10440053;28;20045;-75
2022/05/22 21:38:12;;;;;;;4.38;1.23;;;;;;;13.36;nan;99401.44;10420243;28;20119;-76
2022/05/22 21:43:17;;;;;;;8.15;1.42;;;;;;;13.27;nan;99370.91;10403678;28;20525;-76
2022/05/22 21:48:19;;;;;;;10.05;1.42;;;;;;;13.18;nan;99335.13;10426655;28;20404;-75
2022/05/22 21:53:20;;;;;;;6.78;1.33;;;;;;;13.07;nan;99300.25;10416415;28;20075;-75
2022/05/22 21:58:27;;;;;;;7.13;1.45;;;;;;;12.97;nan;99261.88;10434331;28;20114;-76
2022/05/22 22:03:30;;;;;;;8.02;1.50;;;;;;;12.85;nan;99221.81;10428015;28;20044;-77
2022/05/22 22:08:32;;;;;;;6.40;2.03;;;;;;;12.76;nan;99179.97;10428384;28;20045;-75
2022/05/22 22:13:34;;;;;;;13.05;2.58;;;;;;;12.64;nan;99138.13;10421527;28;20041;-76
2022/05/22 22:18:36;;;;;;;11.13;1.48;;;;;;;12.59;nan;99119.84;10415172;28;20071;-75
2022/05/22 22:23:37;;;;;;;7.28;1.48;;;;;;;12.60;nan;99125.97;10420204;28;20505;-75
2022/05/22 22:28:39;;;;;;;5.68;1.30;;;;;;;12.67;nan;99159.09;10408044;28;20049;-76
2022/05/22 22:33:42;;;;;;;5.60;1.50;;;;;;;12.73;nan;99190.53;10431009;28;20045;-76
2022/05/22 22:38:44;;;;;;;6.93;2.03;;;;;;;12.78;nan;99203.56;10421949;28;20075;-75
2022/05/22 22:43:46;;;;;;;5.50;1.52;;;;;;;12.80;nan;99218.38;10408509;28;20049;-76
2022/05/22 22:48:48;;;;;;;8.77;1.70;;;;;;;12.86;nan;99249.78;10436426;28;20119;-77
2022/05/22 22:59:12;;;;;;;6.95;1.70;;;;;;;12.93;nan;99286.50;10428638;28;20067;-77
2022/05/22 23:04:14;;;;;;;6.63;1.77;;;;;;;12.94;nan;99285.59;10427783;28;20033;-75
2022/05/22 23:09:15;;;;;;;6.63;1.60;;;;;;;12.97;nan;99314.44;10439914;28;20056;-75
2022/05/22 23:14:19;;;;;;;8.82;1.70;;;;;;;12.99;nan;99320.56;10439236;28;20052;-76
2022/05/22 23:19:21;;;;;;;7.03;1.88;;;;;;;12.98;nan;99306.53;10408613;28;20045;-74
2022/05/22 23:24:23;;;;;;;8.32;2.15;;;;;;;12.95;nan;99303.09;10426522;28;20046;-76
2022/05/22 23:29:25;;;;;;;9.05;1.60;;;;;;;12.88;nan;99276.94;10434936;28;20791;-76
2022/05/22 23:34:27;;;;;;;7.88;1.55;;;;;;;12.79;nan;99250.81;10439625;28;20053;-76
2022/05/22 23:39:32;;;;;;;6.38;1.95;;;;;;;12.66;nan;99205.50;10420964;28;20049;-77
2022/05/22 23:44:36;;;;;;;7.55;1.50;;;;;;;12.63;nan;99199.44;10434148;28;20094;-77
2022/05/22 23:49:38;;;;;;;5.70;1.60;;;;;;;12.52;nan;99160.22;10443126;28;20061;-77
2022/05/22 23:54:44;;;;;;;7.10;1.70;;;;;;;12.44;nan;99136.72;10426020;28;20500;-77
2022/05/22 23:59:46;;;;;;;6.57;1.65;;;;;;;12.36;nan;99099.25;10448968;28;20091;-75
